Quenames — WTU9038 — position and weather

sailwx.info

Track history (hours):
 
Tides and Currents Weather Stations Pressure Air Temp Water Temp Dewpoint Dewpoint Depression Visibility Wind Speed Wind Dir Waves Ship Positions

Quenames

Owner: BOSTON MARINE TRANSPORT INC, EAST BOSTON, MA. More information available from US FCC via Universal Licensing System and Coast Guard Vessel Documentation Center.

Last reported at 2017-Feb-22 07:22 UTC. Time now 2017-Feb-22 15:16 UTC.
Position N 40°53' W 073°43'.

Length 23 m; draft 3 m.

Type: Tug. MMSI: 367022790.

Date/timePositionNaut miles runAvg speedWind from/ knotsBaromVisibWave heightAir tempDewpointWater temp
2017-Feb-22 07:22N 40°53' W 073°43'6 7.3
2017-Feb-22 06:33N 40°48' W 073°47'7 6.7
2017-Feb-22 05:33N 40°47' W 073°56'6 5.6
2017-Feb-22 04:33N 40°42' W 073°60'6 5.8
2017-Feb-22 03:33N 40°39' W 074°06'5 5.1
2017-Feb-22 02:33N 40°36' W 074°12'4 4.3
2017-Feb-22 01:33N 40°33' W 074°15'0 0.1
2017-Feb-22 00:32N 40°33' W 074°15'0 0.0
2017-Feb-21 23:33N 40°33' W 074°15'1 0.2
2017-Feb-21 19:11N 40°32' W 074°15'1 0.7
2017-Feb-21 17:33N 40°33' W 074°15'0 0.2
2017-Feb-21 16:33N 40°33' W 074°15'0 0.0
2017-Feb-21 15:32N 40°33' W 074°15'0 0.0
2017-Feb-21 14:29N 40°33' W 074°15'0 0.0
2017-Feb-21 13:09N 40°33' W 074°15'0 0.0
2017-Feb-21 12:33N 40°33' W 074°15'0 0.0
2017-Feb-21 11:07N 40°33' W 074°15'0 0.0
2017-Feb-21 10:33N 40°33' W 074°15'3 1.9
2017-Feb-21 09:09N 40°35' W 074°13'3 4.5
2017-Feb-21 08:32N 40°38' W 074°12'5 5.0
2017-Feb-21 07:34N 40°41' W 074°08'1 0.8
2017-Feb-21 06:33N 40°42' W 074°09'0 0.0
2017-Feb-21 05:33N 40°42' W 074°09'0 0.0
2017-Feb-21 04:33N 40°42' W 074°09'0 0.0
2017-Feb-21 03:33N 40°42' W 074°09'1 0.5
2017-Feb-21 02:33N 40°42' W 074°08'3 3.1
2017-Feb-21 01:33N 40°39' W 074°06'0 0.0
2017-Feb-21 00:33N 40°39' W 074°06'0 0.0
2017-Feb-20 23:33N 40°39' W 074°06'0 0.0
2017-Feb-20 22:33N 40°39' W 074°06'0 0.0
2017-Feb-20 21:33N 40°39' W 074°06'2 1.9
2017-Feb-20 20:34N 40°40' W 074°04'1 1.5
2017-Feb-20 19:33N 40°39' W 074°02'0 0.0
2017-Feb-20 18:33N 40°39' W 074°02'0 0.0
2017-Feb-20 17:33N 40°39' W 074°02'0 0.0
2017-Feb-20 16:33N 40°39' W 074°02'0 0.1
2017-Feb-20 15:33N 40°39' W 074°02'4 3.6
2017-Feb-20 14:33N 40°39' W 074°07'8 8.4
2017-Feb-20 13:33N 40°44' W 073°58'9 8.7
2017-Feb-20 12:33N 40°48' W 073°48'6 0.3
2017-Feb-19 17:24N 40°53' W 073°43'6 7.0
2017-Feb-19 16:31N 40°48' W 073°48'7 7.0
2017-Feb-19 15:33N 40°46' W 073°57'6 6.2
2017-Feb-19 14:33N 40°41' W 074°01'6 6.1
2017-Feb-19 13:33N 40°39' W 074°08'5 4.4
2017-Feb-19 12:30N 40°35' W 074°12'3 2.9
2017-Feb-19 11:33N 40°33' W 074°15'0 0.0
2017-Feb-19 10:05N 40°33' W 074°15'0 0.0
2017-Feb-19 09:33N 40°33' W 074°15'0 0.0
2017-Feb-19 08:33N 40°33' W 074°15'0 0.0
2017-Feb-18 23:33N 40°33' W 074°15'0 0.0
2017-Feb-18 22:33N 40°33' W 074°15'0 0.1
2017-Feb-18 17:16N 40°33' W 074°15'0 0.1
2017-Feb-18 14:28N 40°33' W 074°15'4 4.0
2017-Feb-18 13:33N 40°36' W 074°12'5 5.2
2017-Feb-18 12:33N 40°39' W 074°07'0 0.0
2017-Feb-18 11:33N 40°39' W 074°07'0 0.0
2017-Feb-18 10:33N 40°39' W 074°07'0 0.0
2017-Feb-18 09:33N 40°39' W 074°07'0 0.0
2017-Feb-18 08:33N 40°39' W 074°07'0 0.0
2017-Feb-18 07:33N 40°39' W 074°07'0 0.0
2017-Feb-18 06:33N 40°39' W 074°07'0 0.0
2017-Feb-18 05:33N 40°39' W 074°07'0 0.0
2017-Feb-18 04:33N 40°39' W 074°07'0 0.0
2017-Feb-18 03:33N 40°39' W 074°07'0 0.0
2017-Feb-18 02:33N 40°39' W 074°07'0 0.0
2017-Feb-18 01:33N 40°39' W 074°07'0 0.0
2017-Feb-18 00:33N 40°39' W 074°07'1 0.7
2017-Feb-17 23:34N 40°39' W 074°07'1 1.4
2017-Feb-17 22:33N 40°39' W 074°09'0 0.3
2017-Feb-17 21:33N 40°39' W 074°09'4 3.7
2017-Feb-17 20:33N 40°36' W 074°12'1 0.4
2017-Feb-17 17:12N 40°35' W 074°13'4 1.3
2017-Feb-17 14:21N 40°32' W 074°15'0 0.0
2017-Feb-17 13:30N 40°32' W 074°15'0 0.2
2017-Feb-17 11:27N 40°32' W 074°15'4 4.2
2017-Feb-17 10:33N 40°35' W 074°12'0 0.0
2017-Feb-17 09:33N 40°35' W 074°12'0 0.3
2017-Feb-17 08:23N 40°35' W 074°13'3 3.6
2017-Feb-17 07:33N 40°33' W 074°15'0 0.2
2017-Feb-17 06:33N 40°33' W 074°15'0 0.0
2017-Feb-17 05:33N 40°33' W 074°15'0 0.0
2017-Feb-17 04:33N 40°33' W 074°15'0 0.0
2017-Feb-17 03:33N 40°33' W 074°15'0 0.0
2017-Feb-17 02:33N 40°33' W 074°15'2 1.9
2017-Feb-17 01:32N 40°34' W 074°13'6 6.6
2017-Feb-17 00:33N 40°39' W 074°07'9 9.5
2017-Feb-16 23:34N 40°47' W 074°00'14 0.7
2017-Feb-16 03:31N 40°60' W 073°53'6 6.1
2017-Feb-16 02:33N 40°54' W 073°55'6 5.6
2017-Feb-16 01:33N 40°49' W 073°58'5 5.0
2017-Feb-16 00:33N 40°45' W 074°01'5 4.5
2017-Feb-15 23:33N 40°40' W 074°03'5 5.5
2017-Feb-15 22:33N 40°39' W 074°10'5 4.6
2017-Feb-15 21:33N 40°35' W 074°13'3 0.3
2017-Feb-15 12:30N 40°33' W 074°15'2 1.8
2017-Feb-15 11:30N 40°34' W 074°13'6 6.6
2017-Feb-15 10:33N 40°39' W 074°08'9 8.8
2017-Feb-15 09:33N 40°43' W 073°58'8 8.4
2017-Feb-15 08:33N 40°48' W 073°49'7 0.4
2017-Feb-14 13:16N 40°53' W 073°42'5 7.2
2017-Feb-14 12:33N 40°50' W 073°47'6 6.3
2017-Feb-14 11:33N 40°48' W 073°55'5 4.8
2017-Feb-14 10:33N 40°44' W 073°58'4 4.3
2017-Feb-14 09:33N 40°41' W 074°02'6 5.5
2017-Feb-14 08:33N 40°38' W 074°09'4 3.8
2017-Feb-14 07:33N 40°36' W 074°12'4 3.8
2017-Feb-14 06:32N 40°33' W 074°15'0 0.3
2017-Feb-14 05:32N 40°33' W 074°15'0 0.0
2017-Feb-14 04:33N 40°33' W 074°15'0 0.0
2017-Feb-14 03:33N 40°33' W 074°15'0 0.0
2017-Feb-14 02:33N 40°33' W 074°15'0 0.0
2017-Feb-14 01:31N 40°33' W 074°15'0 0.0
2017-Feb-14 00:33N 40°33' W 074°15'0 0.0
2017-Feb-13 21:33N 40°33' W 074°15'0 0.0
2017-Feb-13 20:33N 40°33' W 074°15'1 0.3
2017-Feb-13 17:18N 40°32' W 074°15'0 0.0
2017-Feb-13 16:21N 40°32' W 074°15'1 1.3
2017-Feb-13 15:32N 40°33' W 074°15'3 2.1
2017-Feb-13 14:20N 40°35' W 074°13'3 3.4
2017-Feb-13 13:31N 40°33' W 074°15'0 0.2
2017-Feb-13 12:33N 40°33' W 074°15'0 0.0
2017-Feb-13 11:32N 40°33' W 074°15'0 0.0
2017-Feb-13 10:33N 40°33' W 074°15'0 0.0
2017-Feb-13 09:33N 40°33' W 074°15'0 0.0
2017-Feb-13 08:33N 40°33' W 074°15'0 0.0
2017-Feb-13 07:29N 40°33' W 074°15'0 0.0
2017-Feb-13 06:33N 40°33' W 074°15'0 0.0
2017-Feb-13 05:33N 40°33' W 074°15'0 0.0
2017-Feb-13 04:33N 40°33' W 074°15'0 0.0
2017-Feb-13 03:33N 40°33' W 074°15'0 0.0
2017-Feb-13 02:33N 40°33' W 074°15'0 0.0
2017-Feb-13 01:30N 40°33' W 074°15'0 0.0
2017-Feb-13 00:33N 40°33' W 074°15'0 0.0
2017-Feb-12 16:30N 40°33' W 074°15'2 1.6
2017-Feb-12 15:25N 40°34' W 074°13'5 6.0
2017-Feb-12 14:33N 40°39' W 074°11'4 4.4
2017-Feb-12 13:33N 40°39' W 074°05'0 0.0
2017-Feb-12 12:34N 40°39' W 074°05'0 0.0
2017-Feb-12 11:34N 40°39' W 074°05'0 0.0
2017-Feb-12 10:34N 40°39' W 074°05'0 0.0
2017-Feb-12 09:34N 40°39' W 074°05'0 0.0
2017-Feb-12 08:34N 40°39' W 074°05'0 0.0
2017-Feb-12 07:34N 40°39' W 074°05'  
Track history (hours):
 
Tides and Currents Weather Stations Pressure Air Temp Water Temp Dewpoint Dewpoint Depression Visibility Wind Speed Wind Dir Waves Ship Positions

Quenames

Owner: BOSTON MARINE TRANSPORT INC, EAST BOSTON, MA. More information available from US FCC via Universal Licensing System and Coast Guard Vessel Documentation Center.

Last reported at 2017-Feb-22 07:22 UTC. Time now 2017-Feb-22 15:16 UTC.
Position N 40°53' W 073°43'.

Length 23 m; draft 3 m.

Type: Tug. MMSI: 367022790.

Date/timePositionNaut miles runAvg speedWind from/ knotsBaromVisibWave heightAir tempDewpointWater temp
2017-Feb-22 07:22N 40°53' W 073°43'6 7.3
2017-Feb-22 06:33N 40°48' W 073°47'7 6.7
2017-Feb-22 05:33N 40°47' W 073°56'6 5.6
2017-Feb-22 04:33N 40°42' W 073°60'6 5.8
2017-Feb-22 03:33N 40°39' W 074°06'5 5.1
2017-Feb-22 02:33N 40°36' W 074°12'4 4.3
2017-Feb-22 01:33N 40°33' W 074°15'0 0.1
2017-Feb-22 00:32N 40°33' W 074°15'0 0.0
2017-Feb-21 23:33N 40°33' W 074°15'1 0.2
2017-Feb-21 19:11N 40°32' W 074°15'1 0.7
2017-Feb-21 17:33N 40°33' W 074°15'0 0.2
2017-Feb-21 16:33N 40°33' W 074°15'0 0.0
2017-Feb-21 15:32N 40°33' W 074°15'0 0.0
2017-Feb-21 14:29N 40°33' W 074°15'0 0.0
2017-Feb-21 13:09N 40°33' W 074°15'0 0.0
2017-Feb-21 12:33N 40°33' W 074°15'0 0.0
2017-Feb-21 11:07N 40°33' W 074°15'0 0.0
2017-Feb-21 10:33N 40°33' W 074°15'3 1.9
2017-Feb-21 09:09N 40°35' W 074°13'3 4.5
2017-Feb-21 08:32N 40°38' W 074°12'5 5.0
2017-Feb-21 07:34N 40°41' W 074°08'1 0.8
2017-Feb-21 06:33N 40°42' W 074°09'0 0.0
2017-Feb-21 05:33N 40°42' W 074°09'0 0.0
2017-Feb-21 04:33N 40°42' W 074°09'0 0.0
2017-Feb-21 03:33N 40°42' W 074°09'1 0.5
2017-Feb-21 02:33N 40°42' W 074°08'3 3.1
2017-Feb-21 01:33N 40°39' W 074°06'0 0.0
2017-Feb-21 00:33N 40°39' W 074°06'0 0.0
2017-Feb-20 23:33N 40°39' W 074°06'0 0.0
2017-Feb-20 22:33N 40°39' W 074°06'0 0.0
2017-Feb-20 21:33N 40°39' W 074°06'2 1.9
2017-Feb-20 20:34N 40°40' W 074°04'1 1.5
2017-Feb-20 19:33N 40°39' W 074°02'0 0.0
2017-Feb-20 18:33N 40°39' W 074°02'0 0.0
2017-Feb-20 17:33N 40°39' W 074°02'0 0.0
2017-Feb-20 16:33N 40°39' W 074°02'0 0.1
2017-Feb-20 15:33N 40°39' W 074°02'4 3.6
2017-Feb-20 14:33N 40°39' W 074°07'8 8.4
2017-Feb-20 13:33N 40°44' W 073°58'9 8.7
2017-Feb-20 12:33N 40°48' W 073°48'6 0.3
2017-Feb-19 17:24N 40°53' W 073°43'6 7.0
2017-Feb-19 16:31N 40°48' W 073°48'7 7.0
2017-Feb-19 15:33N 40°46' W 073°57'6 6.2
2017-Feb-19 14:33N 40°41' W 074°01'6 6.1
2017-Feb-19 13:33N 40°39' W 074°08'5 4.4
2017-Feb-19 12:30N 40°35' W 074°12'3 2.9
2017-Feb-19 11:33N 40°33' W 074°15'0 0.0
2017-Feb-19 10:05N 40°33' W 074°15'0 0.0
2017-Feb-19 09:33N 40°33' W 074°15'0 0.0
2017-Feb-19 08:33N 40°33' W 074°15'0 0.0
2017-Feb-18 23:33N 40°33' W 074°15'0 0.0
2017-Feb-18 22:33N 40°33' W 074°15'0 0.1
2017-Feb-18 17:16N 40°33' W 074°15'0 0.1
2017-Feb-18 14:28N 40°33' W 074°15'4 4.0
2017-Feb-18 13:33N 40°36' W 074°12'5 5.2
2017-Feb-18 12:33N 40°39' W 074°07'0 0.0
2017-Feb-18 11:33N 40°39' W 074°07'0 0.0
2017-Feb-18 10:33N 40°39' W 074°07'0 0.0
2017-Feb-18 09:33N 40°39' W 074°07'0 0.0
2017-Feb-18 08:33N 40°39' W 074°07'0 0.0
2017-Feb-18 07:33N 40°39' W 074°07'0 0.0
2017-Feb-18 06:33N 40°39' W 074°07'0 0.0
2017-Feb-18 05:33N 40°39' W 074°07'0 0.0
2017-Feb-18 04:33N 40°39' W 074°07'0 0.0
2017-Feb-18 03:33N 40°39' W 074°07'0 0.0
2017-Feb-18 02:33N 40°39' W 074°07'0 0.0
2017-Feb-18 01:33N 40°39' W 074°07'0 0.0
2017-Feb-18 00:33N 40°39' W 074°07'1 0.7
2017-Feb-17 23:34N 40°39' W 074°07'1 1.4
2017-Feb-17 22:33N 40°39' W 074°09'0 0.3
2017-Feb-17 21:33N 40°39' W 074°09'4 3.7
2017-Feb-17 20:33N 40°36' W 074°12'1 0.4
2017-Feb-17 17:12N 40°35' W 074°13'4 1.3
2017-Feb-17 14:21N 40°32' W 074°15'0 0.0
2017-Feb-17 13:30N 40°32' W 074°15'0 0.2
2017-Feb-17 11:27N 40°32' W 074°15'4 4.2
2017-Feb-17 10:33N 40°35' W 074°12'0 0.0
2017-Feb-17 09:33N 40°35' W 074°12'0 0.3
2017-Feb-17 08:23N 40°35' W 074°13'3 3.6
2017-Feb-17 07:33N 40°33' W 074°15'0 0.2
2017-Feb-17 06:33N 40°33' W 074°15'0 0.0
2017-Feb-17 05:33N 40°33' W 074°15'0 0.0
2017-Feb-17 04:33N 40°33' W 074°15'0 0.0
2017-Feb-17 03:33N 40°33' W 074°15'0 0.0
2017-Feb-17 02:33N 40°33' W 074°15'2 1.9
2017-Feb-17 01:32N 40°34' W 074°13'6 6.6
2017-Feb-17 00:33N 40°39' W 074°07'9 9.5
2017-Feb-16 23:34N 40°47' W 074°00'14 0.7
2017-Feb-16 03:31N 40°60' W 073°53'6 6.1
2017-Feb-16 02:33N 40°54' W 073°55'6 5.6
2017-Feb-16 01:33N 40°49' W 073°58'5 5.0
2017-Feb-16 00:33N 40°45' W 074°01'5 4.5
2017-Feb-15 23:33N 40°40' W 074°03'5 5.5
2017-Feb-15 22:33N 40°39' W 074°10'5 4.6
2017-Feb-15 21:33N 40°35' W 074°13'3 0.3
2017-Feb-15 12:30N 40°33' W 074°15'2 1.8
2017-Feb-15 11:30N 40°34' W 074°13'6 6.6
2017-Feb-15 10:33N 40°39' W 074°08'9 8.8
2017-Feb-15 09:33N 40°43' W 073°58'8 8.4
2017-Feb-15 08:33N 40°48' W 073°49'7 0.4
2017-Feb-14 13:16N 40°53' W 073°42'5 7.2
2017-Feb-14 12:33N 40°50' W 073°47'6 6.3
2017-Feb-14 11:33N 40°48' W 073°55'5 4.8
2017-Feb-14 10:33N 40°44' W 073°58'4 4.3
2017-Feb-14 09:33N 40°41' W 074°02'6 5.5
2017-Feb-14 08:33N 40°38' W 074°09'4 3.8
2017-Feb-14 07:33N 40°36' W 074°12'4 3.8
2017-Feb-14 06:32N 40°33' W 074°15'0 0.3
2017-Feb-14 05:32N 40°33' W 074°15'0 0.0
2017-Feb-14 04:33N 40°33' W 074°15'0 0.0
2017-Feb-14 03:33N 40°33' W 074°15'0 0.0
2017-Feb-14 02:33N 40°33' W 074°15'0 0.0
2017-Feb-14 01:31N 40°33' W 074°15'0 0.0
2017-Feb-14 00:33N 40°33' W 074°15'0 0.0
2017-Feb-13 21:33N 40°33' W 074°15'0 0.0
2017-Feb-13 20:33N 40°33' W 074°15'1 0.3
2017-Feb-13 17:18N 40°32' W 074°15'0 0.0
2017-Feb-13 16:21N 40°32' W 074°15'1 1.3
2017-Feb-13 15:32N 40°33' W 074°15'3 2.1
2017-Feb-13 14:20N 40°35' W 074°13'3 3.4
2017-Feb-13 13:31N 40°33' W 074°15'0 0.2
2017-Feb-13 12:33N 40°33' W 074°15'0 0.0
2017-Feb-13 11:32N 40°33' W 074°15'0 0.0
2017-Feb-13 10:33N 40°33' W 074°15'0 0.0
2017-Feb-13 09:33N 40°33' W 074°15'0 0.0
2017-Feb-13 08:33N 40°33' W 074°15'0 0.0
2017-Feb-13 07:29N 40°33' W 074°15'0 0.0
2017-Feb-13 06:33N 40°33' W 074°15'0 0.0
2017-Feb-13 05:33N 40°33' W 074°15'0 0.0
2017-Feb-13 04:33N 40°33' W 074°15'0 0.0
2017-Feb-13 03:33N 40°33' W 074°15'0 0.0
2017-Feb-13 02:33N 40°33' W 074°15'0 0.0
2017-Feb-13 01:30N 40°33' W 074°15'0 0.0
2017-Feb-13 00:33N 40°33' W 074°15'0 0.0
2017-Feb-12 16:30N 40°33' W 074°15'2 1.6
2017-Feb-12 15:25N 40°34' W 074°13'5 6.0
2017-Feb-12 14:33N 40°39' W 074°11'4 4.4
2017-Feb-12 13:33N 40°39' W 074°05'0 0.0
2017-Feb-12 12:34N 40°39' W 074°05'0 0.0
2017-Feb-12 11:34N 40°39' W 074°05'0 0.0
2017-Feb-12 10:34N 40°39' W 074°05'0 0.0
2017-Feb-12 09:34N 40°39' W 074°05'0 0.0
2017-Feb-12 08:34N 40°39' W 074°05'0 0.0
2017-Feb-12 07:34N 40°39' W 074°05'  

Dump ship's entire track history